Glendale, Texas
Current Conditions -  °F | °C
As of 3:35 PM on Saturday 22 Nov 2014 (Local Time) from KDKR Reporting Station
Light Rain Light Rain  
Wind Chill: 68°   Ceiling: 1600
Heat Index: 68°   Visibility: 5mi
Dew Point: 64°   Wind: 5mph
Humidity: 88%   Direction: 100°E
Pressure: 29.93"   Gusts: NA
Location:  30.9905°N, 95.3368°W
Report Text: KDKR 222135Z AUTO 10004KT 5SM -RA BKN016 20/18 A2993 RMK AO2
Loading
Personal Weather Stations






























Interactive Weather Map New forecast layout! Learn more

10-Day Weather Forecast

Advertisements
Track Severe Weather on mobile